sensor_id;sensor_type;location;lat;lon;timestamp;pressure;altitude;pressure_sealevel;temperature;humidity
17950;BME280;9100;48.700;9.316;2023-03-16T00:00:51;98110.2;;;2.97;100
17950;BME280;9100;48.700;9.316;2023-03-16T00:01:51;98117.8;;;2.95;100
17950;BME280;9100;48.700;9.316;2023-03-16T00:02:52;98112.8;;;2.95;100
17950;BME280;9100;48.700;9.316;2023-03-16T00:03:23;98104.2;;;2.86;100
17950;BME280;9100;48.700;9.316;2023-03-16T00:03:51;98117;;;2.94;100
17950;BME280;9100;48.700;9.316;2023-03-16T00:04:51;98113.59999999999;;;2.96;100
17950;BME280;9100;48.700;9.316;2023-03-16T00:05:52;98110.2;;;2.97;100
17950;BME280;9100;48.700;9.316;2023-03-16T00:06:51;98120.3;;;2.97;100
17950;BME280;9100;48.700;9.316;2023-03-16T00:07:51;98113.59999999999;;;2.96;100
17950;BME280;9100;48.700;9.316;2023-03-16T00:08:23;98108.5;;;2.96;100
17950;BME280;9100;48.700;9.316;2023-03-16T00:08:51;98110.40000000001;;;2.93;100
17950;BME280;9100;48.700;9.316;2023-03-16T00:09:51;98108.5;;;2.96;100
17950;BME280;9100;48.700;9.316;2023-03-16T00:10:51;98106.9;;;2.94;100
17950;BME280;9100;48.700;9.316;2023-03-16T00:11:51;98116.2;;;2.94;100
17950;BME280;9100;48.700;9.316;2023-03-16T00:12:51;98118.9;;;2.92;100
17950;BME280;9100;48.700;9.316;2023-03-16T00:13:23;98112.2;;;2.91;100
17950;BME280;9100;48.700;9.316;2023-03-16T00:13:51;98108.8;;;2.92;100
17950;BME280;9100;48.700;9.316;2023-03-16T00:14:51;98113;;;2.92;100
17950;BME280;9100;48.700;9.316;2023-03-16T00:15:51;98113.8;;;2.92;100
17950;BME280;9100;48.700;9.316;2023-03-16T00:16:51;98111.40000000001;;;2.91;100
17950;BME280;9100;48.700;9.316;2023-03-16T00:17:51;98115.7;;;2.9;100
17950;BME280;9100;48.700;9.316;2023-03-16T00:18:23;98115.7;;;2.9;100
17950;BME280;9100;48.700;9.316;2023-03-16T00:18:51;98107.2;;;2.91;100
17950;BME280;9100;48.700;9.316;2023-03-16T00:19:51;98112.2;;;2.91;100
17950;BME280;9100;48.700;9.316;2023-03-16T00:20:51;98116.2;;;2.94;100
17950;BME280;9100;48.700;9.316;2023-03-16T00:21:51;98118.8;;;2.94;100
17950;BME280;9100;48.700;9.316;2023-03-16T00:22:51;98114.5;;;2.94;100
17950;BME280;9100;48.700;9.316;2023-03-16T00:23:23;98112.90000000001;;;2.93;100
17950;BME280;9100;48.700;9.316;2023-03-16T00:23:51;98111.2;;;2.94;100
17950;BME280;9100;48.700;9.316;2023-03-16T00:24:51;98115.20000000001;;;2.97;100
17950;BME280;9100;48.700;9.316;2023-03-16T00:25:51;98120.3;;;2.97;100
17950;BME280;9100;48.700;9.316;2023-03-16T00:26:51;98121.1;;;2.97;100
17950;BME280;9100;48.700;9.316;2023-03-16T00:27:51;98114.4;;;2.96;100
17950;BME280;9100;48.700;9.316;2023-03-16T00:28:23;98121.2;;;2.96;100
17950;BME280;9100;48.700;9.316;2023-03-16T00:28:51;98119.6;;;2.94;100
17950;BME280;9100;48.700;9.316;2023-03-16T00:29:51;98118.7;;;2.96;100
17950;BME280;9100;48.700;9.316;2023-03-16T00:30:51;98113.59999999999;;;2.96;100
17950;BME280;9100;48.700;9.316;2023-03-16T00:31:51;98114.5;;;2.94;100
17950;BME280;9100;48.700;9.316;2023-03-16T00:32:51;98112.90000000001;;;2.93;100
17950;BME280;9100;48.700;9.316;2023-03-16T00:33:23;98108.8;;;2.92;100
17950;BME280;9100;48.700;9.316;2023-03-16T00:33:51;98111.3;;;2.92;100
17950;BME280;9100;48.700;9.316;2023-03-16T00:34:51;98111.3;;;2.92;100
17950;BME280;9100;48.700;9.316;2023-03-16T00:35:51;98109.90000000001;;;2.9;100
17950;BME280;9100;48.700;9.316;2023-03-16T00:36:51;98113.3;;;2.89;100
17950;BME280;9100;48.700;9.316;2023-03-16T00:37:51;98113.3;;;2.89;100
17950;BME280;9100;48.700;9.316;2023-03-16T00:38:23;98121;;;2.87;100
17950;BME280;9100;48.700;9.316;2023-03-16T00:38:52;98123.5;;;2.87;100
17950;BME280;9100;48.700;9.316;2023-03-16T00:39:51;98124.40000000001;;;2.86;100
17950;BME280;9100;48.700;9.316;2023-03-16T00:40:51;98122.79999999999;;;2.85;100
17950;BME280;9100;48.700;9.316;2023-03-16T00:41:51;98121.1;;;2.86;100
17950;BME280;9100;48.700;9.316;2023-03-16T00:42:51;98124.40000000001;;;2.86;100
17950;BME280;9100;48.700;9.316;2023-03-16T00:43:23;98123.6;;;2.86;100
17950;BME280;9100;48.700;9.316;2023-03-16T00:43:51;98121.90000000001;;;2.86;100
17950;BME280;9100;48.700;9.316;2023-03-16T00:44:51;98119.4;;;2.86;100
17950;BME280;9100;48.700;9.316;2023-03-16T00:45:56;98124.2;;;2.89;100
17950;BME280;9100;48.700;9.316;2023-03-16T00:46:51;98119.1;;;2.89;100
17950;BME280;9100;48.700;9.316;2023-03-16T00:47:51;98123.40000000001;;;2.89;100
17950;BME280;9100;48.700;9.316;2023-03-16T00:48:23;98117.6;;;2.87;100
17950;BME280;9100;48.700;9.316;2023-03-16T00:48:51;98122.6;;;2.88;100
17950;BME280;9100;48.700;9.316;2023-03-16T00:49:51;98110.90000000001;;;2.87;100
17950;BME280;9100;48.700;9.316;2023-03-16T00:50:51;98121;;;2.87;100
17950;BME280;9100;48.700;9.316;2023-03-16T00:51:51;98102.70000000001;;;2.84;100
17950;BME280;9100;48.700;9.316;2023-03-16T00:52:51;98112.2;;;2.82;100
17950;BME280;9100;48.700;9.316;2023-03-16T00:53:23;98110.7;;;2.79;100
17950;BME280;9100;48.700;9.316;2023-03-16T00:53:52;98109.90000000001;;;2.79;100
17950;BME280;9100;48.700;9.316;2023-03-16T00:54:51;98116.7;;;2.78;100
17950;BME280;9100;48.700;9.316;2023-03-16T00:55:51;98116.7;;;2.78;100
17950;BME280;9100;48.700;9.316;2023-03-16T00:56:52;98117.6;;;2.77;100
17950;BME280;9100;48.700;9.316;2023-03-16T00:57:51;98116.09999999999;;;2.75;100
17950;BME280;9100;48.700;9.316;2023-03-16T00:58:23;98112.90000000001;;;2.73;100
17950;BME280;9100;48.700;9.316;2023-03-16T00:58:51;98117.1;;;2.72;100
17950;BME280;9100;48.700;9.316;2023-03-16T00:59:51;98113.8;;;2.72;100
17950;BME280;9100;48.700;9.316;2023-03-16T01:00:51;98113.9;;;2.7;100
17950;BME280;9100;48.700;9.316;2023-03-16T01:01:51;98113.09999999999;;;2.7;100
17950;BME280;9100;48.700;9.316;2023-03-16T01:02:51;98110.7;;;2.68;100
17950;BME280;9100;48.700;9.316;2023-03-16T01:03:23;98118.3;;;2.68;100
17950;BME280;9100;48.700;9.316;2023-03-16T01:03:51;98120;;;2.68;100
17950;BME280;9100;48.700;9.316;2023-03-16T01:04:51;98116.8;;;2.66;100
17950;BME280;9100;48.700;9.316;2023-03-16T01:05:51;98112.8;;;2.63;100
17950;BME280;9100;48.700;9.316;2023-03-16T01:06:51;98123.7;;;2.64;100
17950;BME280;9100;48.700;9.316;2023-03-16T01:07:51;98120.5;;;2.62;100
17950;BME280;9100;48.700;9.316;2023-03-16T01:08:23;98123.2;;;2.59;100
17950;BME280;9100;48.700;9.316;2023-03-16T01:08:51;98116.6;;;2.58;100
17950;BME280;9100;48.700;9.316;2023-03-16T01:09:51;98119.9;;;2.58;100
17950;BME280;9100;48.700;9.316;2023-03-16T01:10:51;98126.8;;;2.56;100
17950;BME280;9100;48.700;9.316;2023-03-16T01:11:51;98123.6;;;2.54;100
17950;BME280;9100;48.700;9.316;2023-03-16T01:12:52;98127.20000000001;;;2.5;100
17950;BME280;9100;48.700;9.316;2023-03-16T01:13:23;98121.40000000001;;;2.5;100
17950;BME280;9100;48.700;9.316;2023-03-16T01:13:51;98126.4;;;2.5;100
17950;BME280;9100;48.700;9.316;2023-03-16T01:14:51;98029.2;;;1.9;100
17950;BME280;9100;48.700;9.316;2023-03-16T01:15:51;98121.5;;;2.48;100
17950;BME280;9100;48.700;9.316;2023-03-16T01:16:51;98125.9;;;2.46;100
17950;BME280;9100;48.700;9.316;2023-03-16T01:17:51;98123.29999999999;;;2.46;100
17950;BME280;9100;48.700;9.316;2023-03-16T01:18:23;98126.8;;;2.45;100
17950;BME280;9100;48.700;9.316;2023-03-16T01:18:51;98122.7;;;2.44;100
17950;BME280;9100;48.700;9.316;2023-03-16T01:19:51;98120.3;;;2.42;100
17950;BME280;9100;48.700;9.316;2023-03-16T01:20:51;98122.90000000001;;;2.41;100
17950;BME280;9100;48.700;9.316;2023-03-16T01:21:51;98118.8;;;2.4;100
17950;BME280;9100;48.700;9.316;2023-03-16T01:22:51;98115.7;;;2.36;100
17950;BME280;9100;48.700;9.316;2023-03-16T01:23:23;98114.09999999999;;;2.35;100
17950;BME280;9100;48.700;9.316;2023-03-16T01:23:51;98115.09999999999;;;2.33;100
17950;BME280;9100;48.700;9.316;2023-03-16T01:24:51;98125.2;;;2.33;100
17950;BME280;9100;48.700;9.316;2023-03-16T01:25:51;98117.9;;;2.3;100
17950;BME280;9100;48.700;9.316;2023-03-16T01:26:51;98112.90000000001;;;2.28;100
17950;BME280;9100;48.700;9.316;2023-03-16T01:27:51;98118.9;;;2.27;100
17950;BME280;9100;48.700;9.316;2023-03-16T01:28:24;98112.40000000001;;;2.25;100
17950;BME280;9100;48.700;9.316;2023-03-16T01:28:52;98110.7;;;2.24;100
17950;BME280;9100;48.700;9.316;2023-03-16T01:29:51;98048.40000000001;;;1.81;100
17950;BME280;9100;48.700;9.316;2023-03-16T01:30:51;98117.9;;;2.19;100
17950;BME280;9100;48.700;9.316;2023-03-16T01:31:51;98116.5;;;2.15;100
17950;BME280;9100;48.700;9.316;2023-03-16T01:32:51;98124.3;;;2.12;100
17950;BME280;9100;48.700;9.316;2023-03-16T01:33:24;98117.9;;;2.08;100
17950;BME280;9100;48.700;9.316;2023-03-16T01:33:51;98131.3;;;2.08;100
17950;BME280;9100;48.700;9.316;2023-03-16T01:34:51;98116.4;;;2.05;100
17950;BME280;9100;48.700;9.316;2023-03-16T01:35:51;98119.1;;;2.02;100
17950;BME280;9100;48.700;9.316;2023-03-16T01:36:52;98119.3;;;1.99;100
17950;BME280;9100;48.700;9.316;2023-03-16T01:37:51;98114.4;;;1.98;100
17950;BME280;9100;48.700;9.316;2023-03-16T01:38:23;98112.90000000001;;;1.95;100
17950;BME280;9100;48.700;9.316;2023-03-16T01:38:51;98121.3;;;1.95;100
17950;BME280;9100;48.700;9.316;2023-03-16T01:39:51;98074.7;;;1.66;100
17950;BME280;9100;48.700;9.316;2023-03-16T01:40:51;98108.2;;;1.9;100
17950;BME280;9100;48.700;9.316;2023-03-16T01:41:52;98042.4;;;1.49;100
17950;BME280;9100;48.700;9.316;2023-03-16T01:42:58;98109;;;1.91;100
17950;BME280;9100;48.700;9.316;2023-03-16T01:43:23;98111.7;;;1.89;100
17950;BME280;9100;48.700;9.316;2023-03-16T01:43:51;98105;;;1.88;100
17950;BME280;9100;48.700;9.316;2023-03-16T01:44:52;98097.5;;;1.87;100
17950;BME280;9100;48.700;9.316;2023-03-16T01:45:52;98101;;;1.86;100
17950;BME280;9100;48.700;9.316;2023-03-16T01:46:51;98096.1;;;1.84;100
17950;BME280;9100;48.700;9.316;2023-03-16T01:47:51;98100.40000000001;;;1.82;100
17950;BME280;9100;48.700;9.316;2023-03-16T01:48:23;98095.6;;;1.79;100
17950;BME280;9100;48.700;9.316;2023-03-16T01:48:54;98101.3;;;1.81;100
17950;BME280;9100;48.700;9.316;2023-03-16T01:49:51;98096.3;;;1.81;100
17950;BME280;9100;48.700;9.316;2023-03-16T01:50:51;98097.2;;;1.8;100
17950;BME280;9100;48.700;9.316;2023-03-16T01:51:51;98105.7;;;1.79;100
17950;BME280;9100;48.700;9.316;2023-03-16T01:52:51;98093.3;;;1.76;100
17950;BME280;9100;48.700;9.316;2023-03-16T01:53:23;98098.29999999999;;;1.76;100
17950;BME280;9100;48.700;9.316;2023-03-16T01:53:53;98091.7;;;1.75;100
17950;BME280;9100;48.700;9.316;2023-03-16T01:54:52;98088.3;;;1.76;100
17950;BME280;9100;48.700;9.316;2023-03-16T01:55:51;98079;;;1.66;100
17950;BME280;9100;48.700;9.316;2023-03-16T01:56:53;98090.20000000001;;;1.73;100
17950;BME280;9100;48.700;9.316;2023-03-16T01:57:51;98029.2;;;1.34;100
17950;BME280;9100;48.700;9.316;2023-03-16T01:58:23;98093.6;;;1.72;100
17950;BME280;9100;48.700;9.316;2023-03-16T01:58:51;98092.8;;;1.71;100
17950;BME280;9100;48.700;9.316;2023-03-16T01:59:52;98088.59999999999;;;1.72;100
17950;BME280;9100;48.700;9.316;2023-03-16T02:00:51;98087;;;1.71;100
17950;BME280;9100;48.700;9.316;2023-03-16T02:01:51;98096.3;;;1.7;100
17950;BME280;9100;48.700;9.316;2023-03-16T02:02:53;98089.59999999999;;;1.69;100
17950;BME280;9100;48.700;9.316;2023-03-16T02:03:23;98090.4;;;1.7;100
17950;BME280;9100;48.700;9.316;2023-03-16T02:03:52;98089.59999999999;;;1.69;100
17950;BME280;9100;48.700;9.316;2023-03-16T02:04:52;98094.4;;;1.72;100
17950;BME280;9100;48.700;9.316;2023-03-16T02:05:52;98090.3;;;1.71;100
17950;BME280;9100;48.700;9.316;2023-03-16T02:06:52;98088.7;;;1.7;100
17950;BME280;9100;48.700;9.316;2023-03-16T02:07:51;98091.2;;;1.7;100
17950;BME280;9100;48.700;9.316;2023-03-16T02:08:23;98083.8;;;1.69;100
17950;BME280;9100;48.700;9.316;2023-03-16T02:08:51;98083.8;;;1.69;100
17950;BME280;9100;48.700;9.316;2023-03-16T02:09:52;98084.7;;;1.68;100
17950;BME280;9100;48.700;9.316;2023-03-16T02:10:51;97991.7;;;1.08;100
17950;BME280;9100;48.700;9.316;2023-03-16T02:11:51;98093.3;;;1.65;100
17950;BME280;9100;48.700;9.316;2023-03-16T02:12:51;98086;;;1.62;100
17950;BME280;9100;48.700;9.316;2023-03-16T02:13:23;98081.8;;;1.61;100
17950;BME280;9100;48.700;9.316;2023-03-16T02:13:51;98082.7;;;1.6;100
17950;BME280;9100;48.700;9.316;2023-03-16T02:14:51;98085.2;;;1.6;100
17950;BME280;9100;48.700;9.316;2023-03-16T02:15:51;98078.59999999999;;;1.59;100
17950;BME280;9100;48.700;9.316;2023-03-16T02:16:51;98083.7;;;1.59;100
17950;BME280;9100;48.700;9.316;2023-03-16T02:17:51;98080.3;;;1.59;100
17950;BME280;9100;48.700;9.316;2023-03-16T02:18:23;98082.1;;;1.57;100
17950;BME280;9100;48.700;9.316;2023-03-16T02:18:51;98075.40000000001;;;1.57;100
17950;BME280;9100;48.700;9.316;2023-03-16T02:19:52;98082;;;1.58;100
17950;BME280;9100;48.700;9.316;2023-03-16T02:20:53;98080.4;;;1.57;100
17950;BME280;9100;48.700;9.316;2023-03-16T02:21:52;98079.8;;;1.55;100
17950;BME280;9100;48.700;9.316;2023-03-16T02:22:51;98079;;;1.53;100
17950;BME280;9100;48.700;9.316;2023-03-16T02:23:23;98081.6;;;1.53;100
17950;BME280;9100;48.700;9.316;2023-03-16T02:23:51;98072.40000000001;;;1.52;100
17950;BME280;9100;48.700;9.316;2023-03-16T02:24:51;98073.2;;;1.53;100
17950;BME280;9100;48.700;9.316;2023-03-16T02:25:52;98062.5;;;1.49;100
17950;BME280;9100;48.700;9.316;2023-03-16T02:26:51;98065.09999999999;;;1.49;100
17950;BME280;9100;48.700;9.316;2023-03-16T02:27:52;98062.5;;;1.49;100
17950;BME280;9100;48.700;9.316;2023-03-16T02:28:24;98060.2;;;1.48;100
17950;BME280;9100;48.700;9.316;2023-03-16T02:28:53;98061.8;;;1.49;100
17950;BME280;9100;48.700;9.316;2023-03-16T02:29:54;98061;;;1.48;100
17950;BME280;9100;48.700;9.316;2023-03-16T02:30:51;98060;;;1.49;100
17950;BME280;9100;48.700;9.316;2023-03-16T02:31:51;98054.1;;;1.5;100
17950;BME280;9100;48.700;9.316;2023-03-16T02:32:51;98057.5;;;1.49;100
17950;BME280;9100;48.700;9.316;2023-03-16T02:33:23;98049.3;;;1.47;100
17950;BME280;9100;48.700;9.316;2023-03-16T02:33:51;98055.1;;;1.48;100
17950;BME280;9100;48.700;9.316;2023-03-16T02:34:51;98052.5;;;1.49;100
17950;BME280;9100;48.700;9.316;2023-03-16T02:35:51;98057.5;;;1.49;100
17950;BME280;9100;48.700;9.316;2023-03-16T02:36:51;98055.9;;;1.48;100
17950;BME280;9100;48.700;9.316;2023-03-16T02:37:51;98059.1;;;1.5;100
17950;BME280;9100;48.700;9.316;2023-03-16T02:38:23;98055.9;;;1.48;100
17950;BME280;9100;48.700;9.316;2023-03-16T02:38:51;98052.5;;;1.49;100
17950;BME280;9100;48.700;9.316;2023-03-16T02:39:51;98057.5;;;1.49;100
17950;BME280;9100;48.700;9.316;2023-03-16T02:40:54;98061.8;;;1.49;100
17950;BME280;9100;48.700;9.316;2023-03-16T02:41:51;98059.3;;;1.47;100
17950;BME280;9100;48.700;9.316;2023-03-16T02:42:52;98055.1;;;1.48;100
17950;BME280;9100;48.700;9.316;2023-03-16T02:43:23;98051.8;;;1.47;100
17950;BME280;9100;48.700;9.316;2023-03-16T02:43:52;98053.3;;;1.5;100
17950;BME280;9100;48.700;9.316;2023-03-16T02:44:52;98057.3;;;1.52;100
17950;BME280;9100;48.700;9.316;2023-03-16T02:45:53;98057.3;;;1.52;100
17950;BME280;9100;48.700;9.316;2023-03-16T02:46:52;98054.8;;;1.52;100
17950;BME280;9100;48.700;9.316;2023-03-16T02:47:51;98053.09999999999;;;1.53;100
17950;BME280;9100;48.700;9.316;2023-03-16T02:48:24;98054.8;;;1.52;100
17950;BME280;9100;48.700;9.316;2023-03-16T02:48:52;98057.3;;;1.52;100
17950;BME280;9100;48.700;9.316;2023-03-16T02:49:51;98055.7;;;1.51;100
17950;BME280;9100;48.700;9.316;2023-03-16T02:50:51;98061.40000000001;;;1.53;100
17950;BME280;9100;48.700;9.316;2023-03-16T02:51:51;98057.2;;;1.54;100
17950;BME280;9100;48.700;9.316;2023-03-16T02:52:51;98055.5;;;1.54;100
17950;BME280;9100;48.700;9.316;2023-03-16T02:53:24;98061.40000000001;;;1.53;100
17950;BME280;9100;48.700;9.316;2023-03-16T02:53:51;98061.40000000001;;;1.53;100
17950;BME280;9100;48.700;9.316;2023-03-16T02:54:51;98060.5;;;1.54;100
17950;BME280;9100;48.700;9.316;2023-03-16T02:55:51;98055.5;;;1.54;100
17950;BME280;9100;48.700;9.316;2023-03-16T02:56:51;98058;;;1.54;100
17950;BME280;9100;48.700;9.316;2023-03-16T02:57:51;98054.7;;;1.54;100
17950;BME280;9100;48.700;9.316;2023-03-16T02:58:23;98058;;;1.54;100
17950;BME280;9100;48.700;9.316;2023-03-16T02:58:51;98050.40000000001;;;1.54;100
17950;BME280;9100;48.700;9.316;2023-03-16T02:59:51;98052;;;1.55;100
17950;BME280;9100;48.700;9.316;2023-03-16T03:00:51;98052;;;1.55;100
17950;BME280;9100;48.700;9.316;2023-03-16T03:01:51;98053.8;;;1.53;100
17950;BME280;9100;48.700;9.316;2023-03-16T03:02:51;98050.40000000001;;;1.54;100
17950;BME280;9100;48.700;9.316;2023-03-16T03:03:23;98048;;;1.53;100
17950;BME280;9100;48.700;9.316;2023-03-16T03:03:51;98050.40000000001;;;1.54;100
17950;BME280;9100;48.700;9.316;2023-03-16T03:04:51;98053.7;;;1.55;100
17950;BME280;9100;48.700;9.316;2023-03-16T03:05:51;98056.3;;;1.55;100
17950;BME280;9100;48.700;9.316;2023-03-16T03:06:52;98058.7;;;1.56;100
17950;BME280;9100;48.700;9.316;2023-03-16T03:07:51;98046.2;;;1.55;100
17950;BME280;9100;48.700;9.316;2023-03-16T03:08:23;98052;;;1.55;100
17950;BME280;9100;48.700;9.316;2023-03-16T03:08:51;98049.40000000001;;;1.57;100
17950;BME280;9100;48.700;9.316;2023-03-16T03:09:51;98047.7;;;1.57;100
17950;BME280;9100;48.700;9.316;2023-03-16T03:10:51;98050.2;;;1.57;100
17950;BME280;9100;48.700;9.316;2023-03-16T03:11:51;98043.6;;;1.56;100
17950;BME280;9100;48.700;9.316;2023-03-16T03:12:51;98048.6;;;1.56;100
17950;BME280;9100;48.700;9.316;2023-03-16T03:13:23;98039.5;;;1.54;100
17950;BME280;9100;48.700;9.316;2023-03-16T03:13:51;98047.90000000001;;;1.54;100
17950;BME280;9100;48.700;9.316;2023-03-16T03:14:51;98046.1;;;1.56;100
17950;BME280;9100;48.700;9.316;2023-03-16T03:15:51;98035.1;;;1.57;100
17950;BME280;9100;48.700;9.316;2023-03-16T03:16:51;98038.4;;;1.58;100
17950;BME280;9100;48.700;9.316;2023-03-16T03:17:51;98040.09999999999;;;1.57;100
17950;BME280;9100;48.700;9.316;2023-03-16T03:18:23;98039.4;;;1.55;100
17950;BME280;9100;48.700;9.316;2023-03-16T03:18:51;98040.09999999999;;;1.57;100
17950;BME280;9100;48.700;9.316;2023-03-16T03:19:52;98041.7;;;1.58;100
17950;BME280;9100;48.700;9.316;2023-03-16T03:20:51;98034.2;;;1.58;100
17950;BME280;9100;48.700;9.316;2023-03-16T03:21:51;98041.7;;;1.58;100
17950;BME280;9100;48.700;9.316;2023-03-16T03:22:51;98039.09999999999;;;1.6;100
17950;BME280;9100;48.700;9.316;2023-03-16T03:23:24;98040.8;;;1.59;100
17950;BME280;9100;48.700;9.316;2023-03-16T03:23:51;98037.40000000001;;;1.6;100
17950;BME280;9100;48.700;9.316;2023-03-16T03:24:51;98047.29999999999;;;1.62;100
17950;BME280;9100;48.700;9.316;2023-03-16T03:25:51;98054.8;;;1.63;100
17950;BME280;9100;48.700;9.316;2023-03-16T03:26:51;98049.8;;;1.63;100
17950;BME280;9100;48.700;9.316;2023-03-16T03:27:51;98047.2;;;1.63;100
17950;BME280;9100;48.700;9.316;2023-03-16T03:28:23;98053.2;;;1.62;100
17950;BME280;9100;48.700;9.316;2023-03-16T03:28:51;98051.5;;;1.63;100
17950;BME280;9100;48.700;9.316;2023-03-16T03:29:51;98053.2;;;1.62;100
17950;BME280;9100;48.700;9.316;2023-03-16T03:30:51;98049;;;1.63;100
17950;BME280;9100;48.700;9.316;2023-03-16T03:31:51;98051.5;;;1.63;100
17950;BME280;9100;48.700;9.316;2023-03-16T03:32:51;98049;;;1.63;100
17950;BME280;9100;48.700;9.316;2023-03-16T03:33:23;98057.4;;;1.62;100
17950;BME280;9100;48.700;9.316;2023-03-16T03:33:51;98049.1;;;1.61;100
17950;BME280;9100;48.700;9.316;2023-03-16T03:34:51;98053.2;;;1.62;100
17950;BME280;9100;48.700;9.316;2023-03-16T03:35:52;98049.1;;;1.61;100
17950;BME280;9100;48.700;9.316;2023-03-16T03:36:51;98049.8;;;1.63;100
17950;BME280;9100;48.700;9.316;2023-03-16T03:37:51;98053.3;;;1.61;100
17950;BME280;9100;48.700;9.316;2023-03-16T03:38:23;98050;;;1.6;100
17950;BME280;9100;48.700;9.316;2023-03-16T03:38:51;97945.5;;;0.97;100
17950;BME280;9100;48.700;9.316;2023-03-16T03:39:51;98038.2;;;1.61;100
17950;BME280;9100;48.700;9.316;2023-03-16T03:40:51;98040.7;;;1.61;100
17950;BME280;9100;48.700;9.316;2023-03-16T03:41:51;98034.1;;;1.6;100
17950;BME280;9100;48.700;9.316;2023-03-16T03:42:51;98035.79999999999;;;1.59;100
17950;BME280;9100;48.700;9.316;2023-03-16T03:43:23;98029.2;;;1.57;100
17950;BME280;9100;48.700;9.316;2023-03-16T03:43:51;98022.6;;;1.56;100
17950;BME280;9100;48.700;9.316;2023-03-16T03:44:51;98028.5;;;1.56;100
17950;BME280;9100;48.700;9.316;2023-03-16T03:45:54;98026.8;;;1.55;100
17950;BME280;9100;48.700;9.316;2023-03-16T03:46:51;98025.2;;;1.54;100
17950;BME280;9100;48.700;9.316;2023-03-16T03:47:51;98026.3;;;1.52;100
17950;BME280;9100;48.700;9.316;2023-03-16T03:48:23;98028.8;;;1.52;100
17950;BME280;9100;48.700;9.316;2023-03-16T03:48:51;98018.8;;;1.5;100
17950;BME280;9100;48.700;9.316;2023-03-16T03:49:51;98020.6;;;1.48;100
17950;BME280;9100;48.700;9.316;2023-03-16T03:50:51;98024.7;;;1.49;100
17950;BME280;9100;48.700;9.316;2023-03-16T03:51:51;98020.6;;;1.48;100
17950;BME280;9100;48.700;9.316;2023-03-16T03:52:51;98019;;;1.47;100
17950;BME280;9100;48.700;9.316;2023-03-16T03:53:23;98027.4;;;1.48;100
17950;BME280;9100;48.700;9.316;2023-03-16T03:53:51;98029.9;;;1.48;100
17950;BME280;9100;48.700;9.316;2023-03-16T03:54:51;98019;;;1.47;100
17950;BME280;9100;48.700;9.316;2023-03-16T03:55:51;98032.4;;;1.48;100
17950;BME280;9100;48.700;9.316;2023-03-16T03:56:51;98018.1;;;1.48;100
17950;BME280;9100;48.700;9.316;2023-03-16T03:57:51;98024.1;;;1.47;100
17950;BME280;9100;48.700;9.316;2023-03-16T03:58:23;98020.8;;;1.46;100
17950;BME280;9100;48.700;9.316;2023-03-16T03:58:51;98024.90000000001;;;1.48;100
17950;BME280;9100;48.700;9.316;2023-03-16T03:59:51;98020.6;;;1.48;100
17950;BME280;9100;48.700;9.316;2023-03-16T04:00:51;98024.7;;;1.49;100
17950;BME280;9100;48.700;9.316;2023-03-16T04:01:51;98017.2;;;1.49;100
17950;BME280;9100;48.700;9.316;2023-03-16T04:02:51;98018.8;;;1.5;100
17950;BME280;9100;48.700;9.316;2023-03-16T04:03:23;98017.2;;;1.49;100
17950;BME280;9100;48.700;9.316;2023-03-16T04:03:51;98016.4;;;1.49;100
17950;BME280;9100;48.700;9.316;2023-03-16T04:04:51;98015.4;;;1.51;100
17950;BME280;9100;48.700;9.316;2023-03-16T04:05:51;98012;;;1.52;100
17950;BME280;9100;48.700;9.316;2023-03-16T04:06:51;98013.5;;;1.53;100
17950;BME280;9100;48.700;9.316;2023-03-16T04:07:51;98013.5;;;1.53;100
17950;BME280;9100;48.700;9.316;2023-03-16T04:08:23;98017.8;;;1.53;100
17950;BME280;9100;48.700;9.316;2023-03-16T04:08:51;98020.2;;;1.54;100
17950;BME280;9100;48.700;9.316;2023-03-16T04:09:51;98017.7;;;1.54;100
17950;BME280;9100;48.700;9.316;2023-03-16T04:10:51;98018.4;;;1.56;100
17950;BME280;9100;48.700;9.316;2023-03-16T04:11:51;98023.40000000001;;;1.56;100
17950;BME280;9100;48.700;9.316;2023-03-16T04:12:52;98016.7;;;1.55;100
17950;BME280;9100;48.700;9.316;2023-03-16T04:13:23;98016.7;;;1.55;100
17950;BME280;9100;48.700;9.316;2023-03-16T04:13:51;98022.6;;;1.56;100
17950;BME280;9100;48.700;9.316;2023-03-16T04:14:51;98005.9;;;1.55;100
17950;BME280;9100;48.700;9.316;2023-03-16T04:15:54;98021.8;;;1.55;100
17950;BME280;9100;48.700;9.316;2023-03-16T04:16:51;98014.3;;;1.54;100
17950;BME280;9100;48.700;9.316;2023-03-16T04:17:51;98018.6;;;1.53;100
17950;BME280;9100;48.700;9.316;2023-03-16T04:18:23;98017;;;1.52;100
17950;BME280;9100;48.700;9.316;2023-03-16T04:18:51;98015.3;;;1.53;100
17950;BME280;9100;48.700;9.316;2023-03-16T04:19:51;97949.59999999999;;;1.1;100
17950;BME280;9100;48.700;9.316;2023-03-16T04:20:51;98020.2;;;1.54;100
17950;BME280;9100;48.700;9.316;2023-03-16T04:21:52;98020.2;;;1.54;100
17950;BME280;9100;48.700;9.316;2023-03-16T04:22:51;98025.2;;;1.54;100
17950;BME280;9100;48.700;9.316;2023-03-16T04:23:23;98021.90000000001;;;1.54;100
17950;BME280;9100;48.700;9.316;2023-03-16T04:23:51;98020.2;;;1.54;100
17950;BME280;9100;48.700;9.316;2023-03-16T04:24:51;98020.9;;;1.56;100
17950;BME280;9100;48.700;9.316;2023-03-16T04:25:51;98017.6;;;1.56;100
17950;BME280;9100;48.700;9.316;2023-03-16T04:26:51;98016;;;1.55;100
17950;BME280;9100;48.700;9.316;2023-03-16T04:27:51;98001.3;;;1.37;100
17950;BME280;9100;48.700;9.316;2023-03-16T04:28:23;98022.79999999999;;;1.53;100
17950;BME280;9100;48.700;9.316;2023-03-16T04:28:51;98026.09999999999;;;1.53;100
17950;BME280;9100;48.700;9.316;2023-03-16T04:29:52;98018.6;;;1.53;100
17950;BME280;9100;48.700;9.316;2023-03-16T04:30:51;98021.90000000001;;;1.54;100
17950;BME280;9100;48.700;9.316;2023-03-16T04:31:51;98020.2;;;1.54;100
17950;BME280;9100;48.700;9.316;2023-03-16T04:32:51;98025.2;;;1.54;100
17950;BME280;9100;48.700;9.316;2023-03-16T04:33:23;98019.4;;;1.54;100
17950;BME280;9100;48.700;9.316;2023-03-16T04:33:52;98016.9;;;1.54;100
17950;BME280;9100;48.700;9.316;2023-03-16T04:34:51;98018.6;;;1.53;100
17950;BME280;9100;48.700;9.316;2023-03-16T04:35:51;98008.5;;;1.53;100
17950;BME280;9100;48.700;9.316;2023-03-16T04:36:51;98007.7;;;1.53;100
17950;BME280;9100;48.700;9.316;2023-03-16T04:37:51;98010.29999999999;;;1.51;100